Time;durP1;ratioP1;P1;durP2;ratioP2;P2;SDS_P1;SDS_P2;PMS_P1;PMS_P2;Temp;Humidity;BMP_temperature;BMP_pressure;BME280_temperature;BME280_humidity;BME280_pressure;Samples;Min_cycle;Max_cycle;Signal;HPM_P1;HPM_P2
2024/01/06 00:00:49;;;;;;;20.00;9.33;;;;;;;;;;5056749;28;20027;-58
2024/01/06 00:03:14;;;;;;;25.08;10.07;;;;;;;;;;5067390;28;20036;-58
2024/01/06 00:05:39;;;;;;;26.08;10.43;;;;;;;;;;5066585;28;20017;-59
2024/01/06 00:08:06;;;;;;;24.53;9.83;;;;;;;;;;5051348;28;20075;-59
2024/01/06 00:10:31;;;;;;;22.70;10.90;;;;;;;;;;5063266;28;20358;-59
2024/01/06 00:12:57;;;;;;;27.40;10.10;;;;;;;;;;5050300;28;20028;-59
2024/01/06 00:15:22;;;;;;;22.15;9.80;;;;;;;;;;5051632;28;20115;-58
2024/01/06 00:17:47;;;;;;;27.27;10.35;;;;;;;;;;5058838;28;20361;-59
2024/01/06 00:20:12;;;;;;;26.75;10.73;;;;;;;;;;5066312;28;20025;-59
2024/01/06 00:22:38;;;;;;;22.03;9.63;;;;;;;;;;5064195;28;20060;-59
2024/01/06 00:25:03;;;;;;;24.50;10.37;;;;;;;;;;5069994;28;20024;-58
2024/01/06 00:27:28;;;;;;;24.08;10.35;;;;;;;;;;5054171;28;20012;-59
2024/01/06 00:29:53;;;;;;;24.08;9.60;;;;;;;;;;5069981;28;20052;-58
2024/01/06 00:32:19;;;;;;;25.08;10.55;;;;;;;;;;5050682;28;20033;-58
2024/01/06 00:34:44;;;;;;;22.95;9.52;;;;;;;;;;5066610;28;20024;-59
2024/01/06 00:37:09;;;;;;;24.02;10.98;;;;;;;;;;5070069;28;20388;-59
2024/01/06 00:39:34;;;;;;;28.00;10.93;;;;;;;;;;5065636;28;20032;-58
2024/01/06 00:42:00;;;;;;;29.87;10.90;;;;;;;;;;5057535;28;20024;-58
2024/01/06 00:44:25;;;;;;;24.37;11.27;;;;;;;;;;5071309;28;20361;-58
2024/01/06 00:46:50;;;;;;;26.13;11.23;;;;;;;;;;5084610;28;20024;-58
2024/01/06 00:49:15;;;;;;;23.53;10.23;;;;;;;;;;5072805;28;20028;-57
2024/01/06 00:51:40;;;;;;;23.23;10.70;;;;;;;;;;5060115;28;20450;-59
2024/01/06 00:54:06;;;;;;;24.67;10.43;;;;;;;;;;5070563;28;20366;-59
2024/01/06 00:56:31;;;;;;;28.43;10.77;;;;;;;;;;5073837;28;20970;-59
2024/01/06 00:58:56;;;;;;;26.40;10.43;;;;;;;;;;5072753;28;20033;-58
2024/01/06 01:01:21;;;;;;;29.33;10.37;;;;;;;;;;5064770;28;20017;-58
2024/01/06 01:03:46;;;;;;;26.45;10.63;;;;;;;;;;5070771;28;20612;-59
2024/01/06 01:06:12;;;;;;;23.98;11.13;;;;;;;;;;5074696;28;20012;-59
2024/01/06 01:08:37;;;;;;;31.23;12.47;;;;;;;;;;5065143;28;20020;-58
2024/01/06 01:11:02;;;;;;;27.20;10.80;;;;;;;;;;5061352;28;20032;-59
2024/01/06 01:13:27;;;;;;;30.23;11.90;;;;;;;;;;5067055;28;20093;-58
2024/01/06 01:15:52;;;;;;;32.57;12.53;;;;;;;;;;5073218;28;20442;-59
2024/01/06 01:18:17;;;;;;;31.33;12.30;;;;;;;;;;5065195;28;20111;-58
2024/01/06 01:20:43;;;;;;;27.85;11.07;;;;;;;;;;5053004;28;20028;-60
2024/01/06 01:23:08;;;;;;;25.33;10.40;;;;;;;;;;5052742;28;20500;-58
2024/01/06 01:25:33;;;;;;;24.08;9.90;;;;;;;;;;5053611;28;20152;-58
2024/01/06 01:27:58;;;;;;;27.43;11.90;;;;;;;;;;5061155;28;20036;-59
2024/01/06 01:30:23;;;;;;;27.55;10.70;;;;;;;;;;5067112;28;20103;-58
2024/01/06 01:32:48;;;;;;;27.40;11.77;;;;;;;;;;5052619;28;20025;-59
2024/01/06 01:35:14;;;;;;;26.88;10.60;;;;;;;;;;5064651;28;20036;-59
2024/01/06 01:37:39;;;;;;;29.03;11.83;;;;;;;;;;5060276;28;20089;-58
2024/01/06 01:40:04;;;;;;;28.00;10.90;;;;;;;;;;5072469;28;20047;-58
2024/01/06 01:42:30;;;;;;;23.50;10.23;;;;;;;;;;5054698;28;20025;-58
2024/01/06 01:44:55;;;;;;;24.77;10.93;;;;;;;;;;5067869;28;20013;-59
2024/01/06 01:47:21;;;;;;;23.80;10.52;;;;;;;;;;5066414;28;20468;-58
2024/01/06 01:49:47;;;;;;;29.63;12.40;;;;;;;;;;5058887;28;20025;-58
2024/01/06 01:52:12;;;;;;;26.88;12.13;;;;;;;;;;5057348;28;20389;-57
2024/01/06 01:54:37;;;;;;;27.90;11.45;;;;;;;;;;5070932;28;20021;-58
2024/01/06 01:57:03;;;;;;;25.30;11.00;;;;;;;;;;5072790;28;20488;-58
2024/01/06 01:59:28;;;;;;;28.48;11.18;;;;;;;;;;5065041;28;20024;-58
2024/01/06 02:01:53;;;;;;;26.27;10.60;;;;;;;;;;5067948;28;20075;-59
2024/01/06 02:04:18;;;;;;;26.13;10.70;;;;;;;;;;5055551;28;20487;-58
2024/01/06 02:06:43;;;;;;;24.88;10.32;;;;;;;;;;5062668;28;20512;-58
2024/01/06 02:09:09;;;;;;;25.20;10.43;;;;;;;;;;5067355;28;20029;-59
2024/01/06 02:11:34;;;;;;;28.60;11.37;;;;;;;;;;5070088;28;20032;-59
2024/01/06 02:13:59;;;;;;;28.13;11.23;;;;;;;;;;5072215;28;20036;-58
2024/01/06 02:16:24;;;;;;;24.63;11.17;;;;;;;;;;5067080;28;20438;-58
2024/01/06 02:18:49;;;;;;;26.50;11.95;;;;;;;;;;5070692;28;20556;-60
2024/01/06 02:21:15;;;;;;;24.50;11.30;;;;;;;;;;5068446;28;20029;-58
2024/01/06 02:23:40;;;;;;;25.90;10.60;;;;;;;;;;5066346;28;20021;-58
2024/01/06 02:26:05;;;;;;;27.47;10.87;;;;;;;;;;5052222;28;20017;-58
2024/01/06 02:28:30;;;;;;;27.63;11.00;;;;;;;;;;5052007;28;20021;-58
2024/01/06 02:30:55;;;;;;;24.88;10.75;;;;;;;;;;5053191;28;20021;-58
2024/01/06 02:33:23;;;;;;;24.63;10.97;;;;;;;;;;5067729;28;20016;-58
2024/01/06 02:35:48;;;;;;;24.77;10.70;;;;;;;;;;5061504;28;20021;-58
2024/01/06 02:38:14;;;;;;;27.67;11.05;;;;;;;;;;5054413;28;20021;-59
2024/01/06 02:40:39;;;;;;;28.80;11.75;;;;;;;;;;5065644;28;20052;-59
2024/01/06 02:43:04;;;;;;;28.70;10.70;;;;;;;;;;5071742;28;20024;-58
2024/01/06 02:45:29;;;;;;;25.95;11.20;;;;;;;;;;5071061;28;20021;-58
2024/01/06 02:47:54;;;;;;;28.25;10.45;;;;;;;;;;5067020;28;20028;-58
2024/01/06 02:50:19;;;;;;;31.70;12.02;;;;;;;;;;5067009;28;20545;-62
2024/01/06 02:52:47;;;;;;;23.90;10.80;;;;;;;;;;5068430;28;20027;-58
2024/01/06 02:55:13;;;;;;;23.67;9.68;;;;;;;;;;5061836;28;20025;-59
2024/01/06 02:57:38;;;;;;;25.85;11.50;;;;;;;;;;5059694;28;20035;-58
2024/01/06 03:00:04;;;;;;;22.55;10.93;;;;;;;;;;5069837;28;20035;-59
2024/01/06 03:02:29;;;;;;;25.85;10.63;;;;;;;;;;5070656;28;20021;-58
2024/01/06 03:04:54;;;;;;;28.10;11.57;;;;;;;;;;5061887;28;20063;-59
2024/01/06 03:07:20;;;;;;;27.10;11.77;;;;;;;;;;5071102;28;20426;-56
2024/01/06 03:09:45;;;;;;;24.90;10.55;;;;;;;;;;5071289;28;20031;-59
2024/01/06 03:12:10;;;;;;;30.17;11.20;;;;;;;;;;5066486;28;20020;-58
2024/01/06 03:14:35;;;;;;;23.73;11.13;;;;;;;;;;5067775;28;20444;-59
2024/01/06 03:17:01;;;;;;;28.83;11.57;;;;;;;;;;5068247;28;20436;-58
2024/01/06 03:19:27;;;;;;;28.60;10.93;;;;;;;;;;5058638;28;20435;-58
2024/01/06 03:21:52;;;;;;;27.60;10.80;;;;;;;;;;5069916;28;20163;-59
2024/01/06 03:24:17;;;;;;;24.58;11.05;;;;;;;;;;5051273;28;20138;-59
2024/01/06 03:26:44;;;;;;;24.67;10.60;;;;;;;;;;5061533;28;20520;-59
2024/01/06 03:29:09;;;;;;;27.73;10.30;;;;;;;;;;5067251;28;20138;-58
2024/01/06 03:31:34;;;;;;;23.17;9.75;;;;;;;;;;5050717;28;20130;-59
2024/01/06 03:33:59;;;;;;;24.33;10.53;;;;;;;;;;5060671;28;20027;-58
2024/01/06 03:36:25;;;;;;;27.30;10.45;;;;;;;;;;5068926;28;20040;-58
2024/01/06 03:38:50;;;;;;;25.52;10.50;;;;;;;;;;5060436;28;20036;-58
2024/01/06 03:41:15;;;;;;;25.80;10.33;;;;;;;;;;5062183;28;20017;-59
2024/01/06 03:43:40;;;;;;;25.10;10.90;;;;;;;;;;5071083;28;20024;-58
2024/01/06 03:46:05;;;;;;;25.70;10.40;;;;;;;;;;5058300;28;20036;-58
2024/01/06 03:48:31;;;;;;;21.05;9.52;;;;;;;;;;5086292;28;20077;-59
2024/01/06 03:50:57;;;;;;;24.83;10.43;;;;;;;;;;5077615;28;20539;-58
2024/01/06 03:53:22;;;;;;;27.08;11.27;;;;;;;;;;5066838;28;20025;-58
2024/01/06 03:55:47;;;;;;;26.63;10.17;;;;;;;;;;5064663;28;20028;-58
2024/01/06 03:58:12;;;;;;;22.57;9.57;;;;;;;;;;5070203;28;20111;-59
2024/01/06 04:00:37;;;;;;;24.17;10.37;;;;;;;;;;5071687;28;20012;-58
2024/01/06 04:03:03;;;;;;;25.67;9.93;;;;;;;;;;5053967;28;20397;-58
2024/01/06 04:05:28;;;;;;;26.25;10.00;;;;;;;;;;5063108;28;20077;-59
2024/01/06 04:07:53;;;;;;;24.25;10.05;;;;;;;;;;5053386;28;20388;-57
2024/01/06 04:10:18;;;;;;;23.33;10.30;;;;;;;;;;5070619;28;20114;-57
2024/01/06 04:12:43;;;;;;;26.07;10.33;;;;;;;;;;5067162;28;20029;-58
2024/01/06 04:15:08;;;;;;;19.77;8.73;;;;;;;;;;5062339;28;20029;-58
2024/01/06 04:17:34;;;;;;;22.57;9.20;;;;;;;;;;5050425;28;20025;-58
2024/01/06 04:19:59;;;;;;;24.00;9.00;;;;;;;;;;5064923;28;20563;-59
2024/01/06 04:22:24;;;;;;;28.07;10.60;;;;;;;;;;5052782;28;20434;-59
2024/01/06 04:24:49;;;;;;;23.53;9.20;;;;;;;;;;5070488;28;20111;-58
2024/01/06 04:27:14;;;;;;;25.13;8.77;;;;;;;;;;5060844;28;20107;-57
2024/01/06 04:29:40;;;;;;;23.50;9.55;;;;;;;;;;5066640;28;20389;-58
2024/01/06 04:32:06;;;;;;;23.70;9.70;;;;;;;;;;5072134;28;20472;-59
2024/01/06 04:34:31;;;;;;;24.42;10.52;;;;;;;;;;5074167;28;20021;-58
2024/01/06 04:36:56;;;;;;;27.52;10.48;;;;;;;;;;5072444;28;20037;-58
2024/01/06 04:39:21;;;;;;;23.23;9.97;;;;;;;;;;5065266;28;20107;-58
2024/01/06 04:41:46;;;;;;;22.08;9.40;;;;;;;;;;5073473;28;20049;-58
2024/01/06 04:44:11;;;;;;;22.45;9.77;;;;;;;;;;5068933;28;20020;-58
2024/01/06 04:46:37;;;;;;;25.87;11.13;;;;;;;;;;5058360;28;20454;-58
2024/01/06 04:49:02;;;;;;;24.13;9.73;;;;;;;;;;5066146;28;20028;-58
2024/01/06 04:51:27;;;;;;;23.25;9.15;;;;;;;;;;5073422;28;20024;-59
2024/01/06 04:53:52;;;;;;;23.48;9.55;;;;;;;;;;5072350;28;20093;-57
2024/01/06 04:56:17;;;;;;;24.23;9.82;;;;;;;;;;5064814;28;20040;-58
2024/01/06 04:58:43;;;;;;;25.07;9.70;;;;;;;;;;5068257;28;20041;-57
2024/01/06 05:01:08;;;;;;;23.08;9.85;;;;;;;;;;5065102;28;20468;-58
2024/01/06 05:03:33;;;;;;;23.40;9.40;;;;;;;;;;5070008;28;20488;-58
2024/01/06 05:05:58;;;;;;;22.50;8.97;;;;;;;;;;5077519;28;20021;-58
2024/01/06 05:08:24;;;;;;;24.65;9.82;;;;;;;;;;5072313;28;20047;-58
2024/01/06 05:10:50;;;;;;;22.15;10.02;;;;;;;;;;5071774;28;20442;-58
2024/01/06 05:13:16;;;;;;;24.70;10.52;;;;;;;;;;5059019;28;20067;-58
2024/01/06 05:15:41;;;;;;;27.40;9.63;;;;;;;;;;5060718;28;20500;-58
2024/01/06 05:18:06;;;;;;;25.73;9.38;;;;;;;;;;5073311;28;20060;-58
2024/01/06 05:20:31;;;;;;;24.45;9.75;;;;;;;;;;5060024;28;20048;-58
2024/01/06 05:22:56;;;;;;;29.13;11.57;;;;;;;;;;5061208;28;20056;-59
2024/01/06 05:25:21;;;;;;;27.03;10.50;;;;;;;;;;5069025;28;20029;-58
2024/01/06 05:27:47;;;;;;;26.48;10.25;;;;;;;;;;5071856;28;20029;-59
2024/01/06 05:30:12;;;;;;;25.70;10.80;;;;;;;;;;5066135;28;20112;-58
2024/01/06 05:32:38;;;;;;;24.80;9.70;;;;;;;;;;5068911;28;20029;-58
2024/01/06 05:35:03;;;;;;;24.85;9.73;;;;;;;;;;5067200;28;20523;-58
2024/01/06 05:37:28;;;;;;;21.58;8.65;;;;;;;;;;5058825;28;20067;-58
2024/01/06 05:39:54;;;;;;;21.50;9.23;;;;;;;;;;5061861;28;20389;-58
2024/01/06 05:42:19;;;;;;;24.85;8.50;;;;;;;;;;5063231;28;20032;-58
2024/01/06 05:44:44;;;;;;;19.40;8.65;;;;;;;;;;5053739;28;20504;-58
2024/01/06 05:47:09;;;;;;;20.42;8.35;;;;;;;;;;5053326;28;20061;-59
2024/01/06 05:49:35;;;;;;;20.93;8.60;;;;;;;;;;5064720;28;20127;-57
2024/01/06 05:52:00;;;;;;;24.65;9.38;;;;;;;;;;5067596;28;20370;-56
2024/01/06 05:54:25;;;;;;;19.50;8.57;;;;;;;;;;5057017;28;20025;-56
2024/01/06 05:56:50;;;;;;;21.50;8.60;;;;;;;;;;5062156;28;20024;-58
2024/01/06 05:59:15;;;;;;;21.40;8.90;;;;;;;;;;5072613;28;20466;-58
2024/01/06 06:01:40;;;;;;;21.05;9.45;;;;;;;;;;5056077;28;20027;-58
2024/01/06 06:04:06;;;;;;;21.70;8.80;;;;;;;;;;5052257;28;20025;-58
2024/01/06 06:06:31;;;;;;;21.30;8.13;;;;;;;;;;5072565;28;20104;-57
2024/01/06 06:08:56;;;;;;;24.13;9.43;;;;;;;;;;5060350;28;20027;-57
2024/01/06 06:11:21;;;;;;;21.00;8.90;;;;;;;;;;5071594;28;20016;-58
2024/01/06 06:13:46;;;;;;;21.33;9.07;;;;;;;;;;5072109;28;20028;-58
2024/01/06 06:16:15;;;;;;;16.92;7.82;;;;;;;;;;5072433;28;20483;-58
2024/01/06 06:18:40;;;;;;;21.02;8.57;;;;;;;;;;5066349;28;20024;-56
2024/01/06 06:21:06;;;;;;;20.48;8.38;;;;;;;;;;5070133;28;20027;-57
2024/01/06 06:23:31;;;;;;;21.05;8.90;;;;;;;;;;5069434;28;20059;-57
2024/01/06 06:25:56;;;;;;;23.35;9.38;;;;;;;;;;5068574;28;20056;-58
2024/01/06 06:28:22;;;;;;;23.20;9.93;;;;;;;;;;5078137;28;20004;-57
2024/01/06 06:30:47;;;;;;;20.27;8.65;;;;;;;;;;5064232;28;20037;-57
2024/01/06 06:33:12;;;;;;;24.40;9.63;;;;;;;;;;5072408;28;20077;-58
2024/01/06 06:35:37;;;;;;;22.10;9.03;;;;;;;;;;5065898;28;20488;-58
2024/01/06 06:38:02;;;;;;;24.40;9.35;;;;;;;;;;5069309;28;20032;-58
2024/01/06 06:40:29;;;;;;;21.03;8.63;;;;;;;;;;5069223;28;20013;-57
2024/01/06 06:42:55;;;;;;;23.17;9.30;;;;;;;;;;5075310;28;20392;-57
2024/01/06 06:45:22;;;;;;;22.90;8.82;;;;;;;;;;5066862;28;20088;-59
2024/01/06 06:47:47;;;;;;;25.08;10.02;;;;;;;;;;5071698;28;20040;-59
2024/01/06 06:50:12;;;;;;;27.63;9.73;;;;;;;;;;5058457;28;20190;-60
2024/01/06 06:52:39;;;;;;;26.42;9.75;;;;;;;;;;5071759;28;20032;-58
2024/01/06 06:55:04;;;;;;;24.50;8.68;;;;;;;;;;5060689;28;20104;-57
2024/01/06 06:57:30;;;;;;;25.75;9.32;;;;;;;;;;5062150;28;20111;-57
2024/01/06 06:59:55;;;;;;;24.40;8.20;;;;;;;;;;5068743;28;20638;-57
2024/01/06 07:02:20;;;;;;;24.20;8.45;;;;;;;;;;5059625;28;20029;-56
2024/01/06 07:04:45;;;;;;;24.75;9.02;;;;;;;;;;5067740;28;20024;-57
2024/01/06 07:07:10;;;;;;;25.70;9.80;;;;;;;;;;5064494;28;20389;-57
2024/01/06 07:09:35;;;;;;;25.90;9.27;;;;;;;;;;5058739;28;20052;-57
2024/01/06 07:12:00;;;;;;;23.73;9.57;;;;;;;;;;5063380;28;20041;-56
2024/01/06 07:14:26;;;;;;;24.00;9.10;;;;;;;;;;5056872;28;20450;-57
2024/01/06 07:16:51;;;;;;;23.90;8.57;;;;;;;;;;5059469;28;20051;-57
2024/01/06 07:19:16;;;;;;;24.40;9.03;;;;;;;;;;5061687;28;20566;-56
2024/01/06 07:21:41;;;;;;;24.30;9.60;;;;;;;;;;5059706;28;20032;-59
2024/01/06 07:24:06;;;;;;;28.02;10.35;;;;;;;;;;5068974;28;20499;-56
2024/01/06 07:26:31;;;;;;;21.50;8.25;;;;;;;;;;5068639;28;20021;-59
2024/01/06 07:28:56;;;;;;;23.63;9.30;;;;;;;;;;5057711;28;20033;-56
2024/01/06 07:31:22;;;;;;;24.27;9.32;;;;;;;;;;5057429;28;20535;-57
2024/01/06 07:33:48;;;;;;;24.40;8.85;;;;;;;;;;5056201;28;20044;-57
2024/01/06 07:36:13;;;;;;;24.77;9.13;;;;;;;;;;5073840;28;20024;-57
2024/01/06 07:38:39;;;;;;;22.65;8.02;;;;;;;;;;5072570;28;20114;-59
2024/01/06 07:41:04;;;;;;;23.45;8.98;;;;;;;;;;5071628;28;20015;-58
2024/01/06 07:43:30;;;;;;;22.93;9.07;;;;;;;;;;5068421;28;20617;-59
2024/01/06 07:45:55;;;;;;;27.00;9.27;;;;;;;;;;5073079;28;20388;-59
2024/01/06 07:48:20;;;;;;;29.05;10.45;;;;;;;;;;5069553;28;20024;-60
2024/01/06 07:50:45;;;;;;;26.40;9.02;;;;;;;;;;5068799;28;20040;-57
2024/01/06 07:53:10;;;;;;;25.80;9.43;;;;;;;;;;5067245;28;20090;-59
2024/01/06 07:55:37;;;;;;;29.13;10.80;;;;;;;;;;5064956;28;20020;-57
2024/01/06 07:58:03;;;;;;;26.70;10.20;;;;;;;;;;5064492;28;20028;-58
2024/01/06 08:00:28;;;;;;;27.75;10.18;;;;;;;;;;5068389;28;20632;-59
2024/01/06 08:02:54;;;;;;;30.50;10.68;;;;;;;;;;5071852;28;20056;-58
2024/01/06 08:05:19;;;;;;;28.40;10.82;;;;;;;;;;5063289;28;20033;-59
2024/01/06 08:07:44;;;;;;;27.38;9.50;;;;;;;;;;5069158;28;20029;-58
2024/01/06 08:10:09;;;;;;;29.60;10.67;;;;;;;;;;5063509;28;20404;-58
2024/01/06 08:12:35;;;;;;;27.43;11.33;;;;;;;;;;5067797;28;20451;-57
2024/01/06 08:15:00;;;;;;;30.80;9.52;;;;;;;;;;5057843;28;20140;-58
2024/01/06 08:17:25;;;;;;;25.58;9.50;;;;;;;;;;5075367;28;20020;-58
2024/01/06 08:19:50;;;;;;;23.47;9.00;;;;;;;;;;5068720;28;20052;-57
2024/01/06 08:22:16;;;;;;;27.83;8.90;;;;;;;;;;5066753;28;20549;-58
2024/01/06 08:24:41;;;;;;;24.92;8.95;;;;;;;;;;5077559;28;20036;-59
2024/01/06 08:27:06;;;;;;;21.13;8.98;;;;;;;;;;5066085;28;20916;-58
2024/01/06 08:29:31;;;;;;;25.23;10.03;;;;;;;;;;5067279;28;20063;-59
2024/01/06 08:31:56;;;;;;;21.10;8.32;;;;;;;;;;5065504;28;20046;-58
2024/01/06 08:34:21;;;;;;;20.87;8.50;;;;;;;;;;5074025;28;20020;-58
2024/01/06 08:36:47;;;;;;;19.83;8.07;;;;;;;;;;5057255;28;20029;-59
2024/01/06 08:39:12;;;;;;;20.87;8.10;;;;;;;;;;5060791;28;20032;-58
2024/01/06 08:41:37;;;;;;;22.10;8.20;;;;;;;;;;5058097;28;20024;-58
2024/01/06 08:44:03;;;;;;;22.23;8.37;;;;;;;;;;5058378;28;20029;-59
2024/01/06 08:46:28;;;;;;;22.47;8.63;;;;;;;;;;5064922;28;20435;-58
2024/01/06 08:48:53;;;;;;;22.27;8.57;;;;;;;;;;5062386;28;20043;-60
2024/01/06 08:51:20;;;;;;;22.42;8.73;;;;;;;;;;5057044;28;20079;-58
2024/01/06 08:53:45;;;;;;;24.02;9.55;;;;;;;;;;5069307;28;20386;-59
2024/01/06 08:56:10;;;;;;;27.03;10.10;;;;;;;;;;5069467;28;20095;-59
2024/01/06 08:58:36;;;;;;;25.20;9.70;;;;;;;;;;5070624;28;20025;-59
2024/01/06 09:01:01;;;;;;;22.50;8.93;;;;;;;;;;5072534;28;20012;-59
2024/01/06 09:03:26;;;;;;;25.33;9.32;;;;;;;;;;5069316;28;20051;-59
2024/01/06 09:05:57;;;;;;;26.13;10.57;;;;;;;;;;5070433;28;20381;-59
2024/01/06 09:08:24;;;;;;;26.02;10.55;;;;;;;;;;5077030;28;20407;-59
2024/01/06 09:10:51;;;;;;;23.33;9.77;;;;;;;;;;5059604;28;20025;-58
2024/01/06 09:13:16;;;;;;;30.80;12.30;;;;;;;;;;5063424;28;20045;-59
2024/01/06 09:15:42;;;;;;;26.80;10.90;;;;;;;;;;5073205;28;20031;-58
2024/01/06 09:18:07;;;;;;;30.90;11.43;;;;;;;;;;5074106;28;20036;-58
2024/01/06 09:20:32;;;;;;;27.03;10.87;;;;;;;;;;5073800;28;20008;-57
2024/01/06 09:22:57;;;;;;;29.02;11.25;;;;;;;;;;5071919;28;20387;-58
2024/01/06 09:25:24;;;;;;;26.17;10.73;;;;;;;;;;5073202;28;20017;-59
2024/01/06 09:27:49;;;;;;;27.65;10.93;;;;;;;;;;5067778;28;20020;-59
2024/01/06 09:30:15;;;;;;;27.30;10.93;;;;;;;;;;5075362;28;20041;-57
2024/01/06 09:32:41;;;;;;;25.02;9.88;;;;;;;;;;5073616;28;20096;-57
2024/01/06 09:35:06;;;;;;;27.77;11.13;;;;;;;;;;5069352;28;20033;-59
2024/01/06 09:37:31;;;;;;;28.70;11.70;;;;;;;;;;5061563;28;20020;-57
2024/01/06 09:39:56;;;;;;;26.00;10.90;;;;;;;;;;5066832;28;20085;-56
2024/01/06 09:42:21;;;;;;;28.45;11.38;;;;;;;;;;5076091;28;20451;-58
2024/01/06 09:44:46;;;;;;;25.77;10.48;;;;;;;;;;5072431;28;20079;-57
2024/01/06 09:47:12;;;;;;;27.60;10.32;;;;;;;;;;5074325;28;20036;-58
2024/01/06 09:49:39;;;;;;;25.48;9.95;;;;;;;;;;5065573;28;20016;-59
2024/01/06 09:52:04;;;;;;;;;;;;;;;;;;5078810;28;20040;-58
2024/01/06 09:54:33;;;;;;;26.08;10.15;;;;;;;;;;5079894;28;19905;-57
2024/01/06 09:56:58;;;;;;;26.30;10.55;;;;;;;;;;5079129;28;20093;-58
2024/01/06 09:59:23;;;;;;;24.80;11.00;;;;;;;;;;5065597;28;20446;-59
2024/01/06 10:01:49;;;;;;;24.30;9.93;;;;;;;;;;5072684;28;20028;-59
2024/01/06 10:04:15;;;;;;;24.23;10.60;;;;;;;;;;5071356;28;20019;-57
2024/01/06 10:06:41;;;;;;;22.80;10.27;;;;;;;;;;5065047;28;20032;-59
2024/01/06 10:09:06;;;;;;;25.40;10.93;;;;;;;;;;5066300;28;20051;-59
2024/01/06 10:11:31;;;;;;;24.38;9.50;;;;;;;;;;5070577;28;20012;-58
2024/01/06 10:13:56;;;;;;;24.08;10.40;;;;;;;;;;5068378;28;20468;-58
2024/01/06 10:16:22;;;;;;;25.23;11.23;;;;;;;;;;5065786;28;20138;-58
2024/01/06 10:18:47;;;;;;;23.92;10.80;;;;;;;;;;5072723;28;20119;-58
2024/01/06 10:21:13;;;;;;;24.73;10.57;;;;;;;;;;5064949;28;20021;-59
2024/01/06 10:23:39;;;;;;;24.23;11.05;;;;;;;;;;5063361;28;20067;-59
2024/01/06 10:26:04;;;;;;;25.13;11.20;;;;;;;;;;5064508;28;20455;-57
2024/01/06 10:28:29;;;;;;;25.08;11.60;;;;;;;;;;5058955;28;20021;-59
2024/01/06 10:30:55;;;;;;;26.58;10.35;;;;;;;;;;5068812;28;20456;-58
2024/01/06 10:33:21;;;;;;;27.13;9.98;;;;;;;;;;5056639;28;20108;-57
2024/01/06 10:35:47;;;;;;;23.98;10.85;;;;;;;;;;5074240;28;20070;-57
2024/01/06 10:38:13;;;;;;;23.98;10.43;;;;;;;;;;5072820;28;20108;-60
2024/01/06 10:40:38;;;;;;;24.75;10.65;;;;;;;;;;5085256;28;20099;-58
2024/01/06 10:43:03;;;;;;;27.48;11.23;;;;;;;;;;5081326;28;20575;-59
2024/01/06 10:45:29;;;;;;;21.95;9.65;;;;;;;;;;5071922;28;20040;-59
2024/01/06 10:47:55;;;;;;;26.40;11.18;;;;;;;;;;5070526;28;20107;-59
2024/01/06 10:50:21;;;;;;;24.13;10.67;;;;;;;;;;5072495;28;20024;-58
2024/01/06 10:52:47;;;;;;;25.15;10.50;;;;;;;;;;5071801;28;20051;-59
2024/01/06 10:55:14;;;;;;;25.58;11.10;;;;;;;;;;5076387;28;20537;-60
2024/01/06 10:57:41;;;;;;;24.25;10.40;;;;;;;;;;5071212;28;20023;-60
2024/01/06 11:00:06;;;;;;;24.58;10.27;;;;;;;;;;5069486;28;20028;-59
2024/01/06 11:02:31;;;;;;;24.98;10.65;;;;;;;;;;5066832;28;20013;-59
2024/01/06 11:04:57;;;;;;;25.63;10.33;;;;;;;;;;5066939;28;20064;-60
2024/01/06 11:07:23;;;;;;;26.07;10.57;;;;;;;;;;5063956;28;20076;-59
2024/01/06 11:09:51;;;;;;;23.20;9.80;;;;;;;;;;5058806;28;20052;-59
2024/01/06 11:12:16;;;;;;;22.30;9.98;;;;;;;;;;5067440;28;20098;-60
2024/01/06 11:14:42;;;;;;;25.40;11.10;;;;;;;;;;5069044;28;20362;-58
2024/01/06 11:17:07;;;;;;;24.38;11.07;;;;;;;;;;5061741;28;20016;-58
2024/01/06 11:19:35;;;;;;;25.80;10.02;;;;;;;;;;5060135;28;20028;-59
2024/01/06 11:22:19;;;;;;;25.20;9.95;;;;;;;;;;5065920;28;20105;-59
2024/01/06 11:24:49;;;;;;;27.58;12.20;;;;;;;;;;5063781;28;20021;-58
2024/01/06 11:27:18;;;;;;;24.52;10.98;;;;;;;;;;5062660;28;20381;-57
2024/01/06 11:29:44;;;;;;;24.80;11.20;;;;;;;;;;5066327;28;20552;-58
2024/01/06 11:32:20;;;;;;;22.00;9.60;;;;;;;;;;5069559;28;20407;-59
2024/01/06 11:34:53;;;;;;;21.00;9.15;;;;;;;;;;5075643;28;20472;-59
2024/01/06 11:37:45;;;;;;;18.95;9.35;;;;;;;;;;5075368;28;20028;-58
2024/01/06 11:40:25;;;;;;;21.67;10.20;;;;;;;;;;5064257;28;20454;-59
2024/01/06 11:43:05;;;;;;;20.70;9.50;;;;;;;;;;5069518;28;20025;-59
2024/01/06 11:45:30;;;;;;;17.95;8.30;;;;;;;;;;5065720;28;20019;-59
2024/01/06 11:48:00;;;;;;;21.33;9.83;;;;;;;;;;5070595;28;20020;-57
2024/01/06 11:50:26;;;;;;;21.95;9.70;;;;;;;;;;5069986;28;20024;-59
2024/01/06 11:52:51;;;;;;;20.85;9.05;;;;;;;;;;5060286;28;20021;-60
2024/01/06 11:55:17;;;;;;;20.10;9.20;;;;;;;;;;5063788;28;20017;-58
2024/01/06 11:57:42;;;;;;;22.50;10.60;;;;;;;;;;5048713;28;20428;-58
2024/01/06 12:00:08;;;;;;;21.02;9.80;;;;;;;;;;5060365;28;20045;-57
2024/01/06 12:02:33;;;;;;;20.52;9.13;;;;;;;;;;5062319;28;20061;-57
2024/01/06 12:04:58;;;;;;;21.27;9.60;;;;;;;;;;5062339;28;20039;-59
2024/01/06 12:07:23;;;;;;;21.25;9.68;;;;;;;;;;5062939;28;20256;-59
2024/01/06 12:09:49;;;;;;;21.20;9.45;;;;;;;;;;5053393;28;20045;-57
2024/01/06 12:12:17;;;;;;;18.83;8.73;;;;;;;;;;5059868;28;20028;-56
2024/01/06 12:14:43;;;;;;;20.38;8.98;;;;;;;;;;5064329;28;20418;-59
2024/01/06 12:17:09;;;;;;;18.57;9.10;;;;;;;;;;5065209;28;20545;-58
2024/01/06 12:19:34;;;;;;;19.95;9.23;;;;;;;;;;5068907;28;20545;-58
2024/01/06 12:21:59;;;;;;;20.20;8.97;;;;;;;;;;5062724;28;20067;-59
2024/01/06 12:24:27;;;;;;;20.87;10.40;;;;;;;;;;5063671;28;20423;-58
2024/01/06 12:26:52;;;;;;;24.80;10.27;;;;;;;;;;5060556;28;20392;-59
2024/01/06 12:29:17;;;;;;;21.07;9.77;;;;;;;;;;5068339;28;20193;-59
2024/01/06 12:31:43;;;;;;;21.23;9.57;;;;;;;;;;5064404;28;20020;-59
2024/01/06 12:34:09;;;;;;;20.63;9.07;;;;;;;;;;5061581;28;20087;-59
2024/01/06 12:36:35;;;;;;;20.35;9.30;;;;;;;;;;5055554;28;20479;-59
2024/01/06 12:39:01;;;;;;;21.42;9.68;;;;;;;;;;5054984;28;20036;-58
2024/01/06 12:41:27;;;;;;;19.40;8.70;;;;;;;;;;5053922;28;20036;-58
2024/01/06 12:43:52;;;;;;;25.00;9.15;;;;;;;;;;5059062;28;20025;-59
2024/01/06 12:46:18;;;;;;;21.10;10.38;;;;;;;;;;5061642;28;20043;-59
2024/01/06 12:48:43;;;;;;;22.50;9.93;;;;;;;;;;5064235;28;20036;-58
2024/01/06 12:51:08;;;;;;;21.40;9.40;;;;;;;;;;5055196;28;20028;-57
2024/01/06 12:53:33;;;;;;;23.77;10.30;;;;;;;;;;5062437;28;20036;-58
2024/01/06 12:55:59;;;;;;;22.40;10.65;;;;;;;;;;5071391;28;20549;-59
2024/01/06 12:58:24;;;;;;;23.63;11.25;;;;;;;;;;5072462;28;20103;-59
2024/01/06 13:00:49;;;;;;;24.63;11.17;;;;;;;;;;5071682;28;20048;-59
2024/01/06 13:03:14;;;;;;;25.58;11.60;;;;;;;;;;5062254;28;20096;-58
2024/01/06 13:05:39;;;;;;;24.20;11.17;;;;;;;;;;5078268;28;20020;-58
2024/01/06 13:08:05;;;;;;;24.20;11.05;;;;;;;;;;5069891;28;20455;-59
2024/01/06 13:10:30;;;;;;;23.23;10.77;;;;;;;;;;5077086;28;20167;-58
2024/01/06 13:12:55;;;;;;;23.60;11.17;;;;;;;;;;5068979;28;20016;-59
2024/01/06 13:15:21;;;;;;;24.65;10.77;;;;;;;;;;5069351;28;20039;-58
2024/01/06 13:17:46;;;;;;;25.52;11.20;;;;;;;;;;5067901;28;20126;-58
2024/01/06 13:20:11;;;;;;;24.58;9.70;;;;;;;;;;5058481;28;20163;-58
2024/01/06 13:22:36;;;;;;;22.23;10.55;;;;;;;;;;5062821;28;20120;-59
2024/01/06 13:25:02;;;;;;;21.38;9.07;;;;;;;;;;5062662;28;20037;-58
2024/01/06 13:27:27;;;;;;;19.20;8.37;;;;;;;;;;5067572;28;20493;-59
2024/01/06 13:29:52;;;;;;;18.58;8.15;;;;;;;;;;5070671;28;20029;-58
2024/01/06 13:32:19;;;;;;;15.95;8.25;;;;;;;;;;5054650;28;20408;-58
2024/01/06 13:34:44;;;;;;;19.15;8.10;;;;;;;;;;5062728;28;20110;-59
2024/01/06 13:37:09;;;;;;;19.57;9.03;;;;;;;;;;5067900;28;20769;-58
2024/01/06 13:39:35;;;;;;;20.13;8.80;;;;;;;;;;5055363;28;20036;-58
2024/01/06 13:42:03;;;;;;;19.00;9.45;;;;;;;;;;5054301;28;20025;-58
2024/01/06 13:44:28;;;;;;;18.33;8.25;;;;;;;;;;5053383;28;20036;-58
2024/01/06 13:46:54;;;;;;;19.83;9.10;;;;;;;;;;5056187;28;20037;-58
2024/01/06 13:49:19;;;;;;;18.70;9.18;;;;;;;;;;5050461;28;20424;-57
2024/01/06 13:51:44;;;;;;;23.30;10.03;;;;;;;;;;5049132;28;20025;-60
2024/01/06 13:54:10;;;;;;;22.83;10.73;;;;;;;;;;5055096;28;20028;-58
2024/01/06 13:56:35;;;;;;;25.33;10.33;;;;;;;;;;5067763;28;20037;-58
2024/01/06 13:59:00;;;;;;;26.17;10.50;;;;;;;;;;5068369;28;20021;-59
2024/01/06 14:01:25;;;;;;;27.03;10.63;;;;;;;;;;5067884;28;20050;-58
2024/01/06 14:03:57;;;;;;;26.87;10.90;;;;;;;;;;5058270;28;20029;-59
2024/01/06 14:06:22;;;;;;;25.60;11.38;;;;;;;;;;5050820;28;20055;-59
2024/01/06 14:08:47;;;;;;;26.85;11.10;;;;;;;;;;5061581;28;20561;-58
2024/01/06 14:11:12;;;;;;;27.70;11.80;;;;;;;;;;5062695;28;20035;-58
2024/01/06 14:13:37;;;;;;;26.00;11.77;;;;;;;;;;5069084;28;20028;-58